Terminal Aerodrome Forecast
Issued by NWS Rapid City, SD

Home | Current Version | Previous Version | Text Only | Print | Product List | Glossary On
Versions: 1 2 3 4 5 6 7 8 9 10 11 12 13 14 15
000
FTUS43 KUNR 052126 AAA
TAFRAP
TAF AMD
KRAP 052126Z 0521/0618 35015KT P6SM SCT035 BKN150
      TEMPO 0523/0603 TSRA BKN030CB
     FM060300 01006KT P6SM OVC080
     FM061200 34012KT P6SM BKN040=

USA.gov is the U.S. government's official web portal to all federal, state and local government web resources and services.